sensor_id;sensor_type;location;lat;lon;timestamp;P1;durP1;ratioP1;P2;durP2;ratioP2
75698;SDS011;64313;51.018;13.742;2024-03-06T00:04:30;32.85;;;16.48;;
75698;SDS011;64313;51.018;13.742;2024-03-06T00:09:22;28.23;;;14.05;;
75698;SDS011;64313;51.018;13.742;2024-03-06T00:14:15;24.10;;;12.75;;
75698;SDS011;64313;51.018;13.742;2024-03-06T00:19:07;24.35;;;12.77;;
75698;SDS011;64313;51.018;13.742;2024-03-06T00:23:58;28.47;;;12.93;;
75698;SDS011;64313;51.018;13.742;2024-03-06T00:28:48;27.70;;;11.60;;
75698;SDS011;64313;51.018;13.742;2024-03-06T00:33:39;23.63;;;11.97;;
75698;SDS011;64313;51.018;13.742;2024-03-06T00:36:06;24.70;;;12.95;;
75698;SDS011;64313;51.018;13.742;2024-03-06T00:40:57;22.83;;;11.73;;
75698;SDS011;64313;51.018;13.742;2024-03-06T00:45:48;24.98;;;11.88;;
75698;SDS011;64313;51.018;13.742;2024-03-06T00:50:38;24.77;;;12.18;;
75698;SDS011;64313;51.018;13.742;2024-03-06T00:55:29;22.08;;;11.40;;
75698;SDS011;64313;51.018;13.742;2024-03-06T01:00:20;23.20;;;11.77;;
75698;SDS011;64313;51.018;13.742;2024-03-06T01:05:11;23.25;;;11.82;;
75698;SDS011;64313;51.018;13.742;2024-03-06T01:10:05;25.02;;;12.07;;
75698;SDS011;64313;51.018;13.742;2024-03-06T01:12:34;24.85;;;12.65;;
75698;SDS011;64313;51.018;13.742;2024-03-06T01:17:25;24.17;;;12.37;;
75698;SDS011;64313;51.018;13.742;2024-03-06T01:22:16;24.13;;;12.55;;
75698;SDS011;64313;51.018;13.742;2024-03-06T01:27:07;22.90;;;12.13;;
75698;SDS011;64313;51.018;13.742;2024-03-06T01:29:33;23.70;;;12.13;;
75698;SDS011;64313;51.018;13.742;2024-03-06T01:34:24;24.65;;;12.13;;
75698;SDS011;64313;51.018;13.742;2024-03-06T01:36:50;23.27;;;11.77;;
75698;SDS011;64313;51.018;13.742;2024-03-06T01:39:17;23.70;;;12.07;;
75698;SDS011;64313;51.018;13.742;2024-03-06T01:44:14;23.23;;;11.48;;
75698;SDS011;64313;51.018;13.742;2024-03-06T01:49:05;20.77;;;11.30;;
75698;SDS011;64313;51.018;13.742;2024-03-06T01:51:32;22.75;;;11.70;;
75698;SDS011;64313;51.018;13.742;2024-03-06T01:56:23;23.90;;;11.77;;
75698;SDS011;64313;51.018;13.742;2024-03-06T02:01:14;22.45;;;11.70;;
75698;SDS011;64313;51.018;13.742;2024-03-06T02:03:41;32.47;;;13.00;;
75698;SDS011;64313;51.018;13.742;2024-03-06T02:08:32;24.45;;;12.07;;
75698;SDS011;64313;51.018;13.742;2024-03-06T02:10:57;24.08;;;12.32;;
75698;SDS011;64313;51.018;13.742;2024-03-06T02:13:25;23.52;;;12.23;;
75698;SDS011;64313;51.018;13.742;2024-03-06T02:18:15;24.97;;;12.63;;
75698;SDS011;64313;51.018;13.742;2024-03-06T02:23:06;25.33;;;11.73;;
75698;SDS011;64313;51.018;13.742;2024-03-06T02:27:57;21.60;;;11.27;;
75698;SDS011;64313;51.018;13.742;2024-03-06T02:30:24;28.00;;;13.25;;
75698;SDS011;64313;51.018;13.742;2024-03-06T02:35:14;22.73;;;11.33;;
75698;SDS011;64313;51.018;13.742;2024-03-06T02:40:06;23.15;;;11.20;;
75698;SDS011;64313;51.018;13.742;2024-03-06T02:44:57;24.88;;;12.73;;
75698;SDS011;64313;51.018;13.742;2024-03-06T02:47:23;23.23;;;12.30;;
75698;SDS011;64313;51.018;13.742;2024-03-06T02:49:48;23.27;;;12.45;;
75698;SDS011;64313;51.018;13.742;2024-03-06T02:52:13;24.60;;;12.32;;
75698;SDS011;64313;51.018;13.742;2024-03-06T02:57:05;22.65;;;12.00;;
75698;SDS011;64313;51.018;13.742;2024-03-06T02:59:32;26.17;;;13.13;;
75698;SDS011;64313;51.018;13.742;2024-03-06T03:01:57;26.25;;;13.07;;
75698;SDS011;64313;51.018;13.742;2024-03-06T03:04:22;26.58;;;12.52;;
75698;SDS011;64313;51.018;13.742;2024-03-06T03:09:13;21.23;;;11.57;;
75698;SDS011;64313;51.018;13.742;2024-03-06T03:14:03;20.57;;;10.90;;
75698;SDS011;64313;51.018;13.742;2024-03-06T03:16:29;23.23;;;11.13;;
75698;SDS011;64313;51.018;13.742;2024-03-06T03:18:55;27.55;;;12.82;;
75698;SDS011;64313;51.018;13.742;2024-03-06T03:23:46;22.38;;;11.45;;
75698;SDS011;64313;51.018;13.742;2024-03-06T03:26:12;24.70;;;12.13;;
75698;SDS011;64313;51.018;13.742;2024-03-06T03:31:04;23.30;;;12.18;;
75698;SDS011;64313;51.018;13.742;2024-03-06T03:33:29;24.70;;;11.77;;
75698;SDS011;64313;51.018;13.742;2024-03-06T03:35:54;25.05;;;12.68;;
75698;SDS011;64313;51.018;13.742;2024-03-06T03:38:20;25.80;;;13.38;;
75698;SDS011;64313;51.018;13.742;2024-03-06T03:40:45;24.00;;;12.43;;
75698;SDS011;64313;51.018;13.742;2024-03-06T03:43:10;27.13;;;12.85;;
75698;SDS011;64313;51.018;13.742;2024-03-06T03:45:36;26.00;;;12.75;;
75698;SDS011;64313;51.018;13.742;2024-03-06T03:48:01;24.85;;;12.60;;
75698;SDS011;64313;51.018;13.742;2024-03-06T03:50:30;28.70;;;13.55;;
75698;SDS011;64313;51.018;13.742;2024-03-06T03:52:56;23.40;;;12.68;;
75698;SDS011;64313;51.018;13.742;2024-03-06T03:55:23;27.88;;;14.05;;
75698;SDS011;64313;51.018;13.742;2024-03-06T03:57:49;23.02;;;12.45;;
75698;SDS011;64313;51.018;13.742;2024-03-06T04:00:15;27.75;;;13.77;;
75698;SDS011;64313;51.018;13.742;2024-03-06T04:02:41;26.83;;;12.90;;
75698;SDS011;64313;51.018;13.742;2024-03-06T04:05:07;24.98;;;12.65;;
75698;SDS011;64313;51.018;13.742;2024-03-06T04:07:34;24.98;;;13.77;;
75698;SDS011;64313;51.018;13.742;2024-03-06T04:10:00;24.50;;;13.13;;
75698;SDS011;64313;51.018;13.742;2024-03-06T04:12:25;28.90;;;13.45;;
75698;SDS011;64313;51.018;13.742;2024-03-06T04:14:51;23.55;;;13.07;;
75698;SDS011;64313;51.018;13.742;2024-03-06T04:17:16;26.38;;;13.38;;
75698;SDS011;64313;51.018;13.742;2024-03-06T04:19:41;26.55;;;13.05;;
75698;SDS011;64313;51.018;13.742;2024-03-06T04:22:07;24.50;;;13.15;;
75698;SDS011;64313;51.018;13.742;2024-03-06T04:24:32;23.90;;;13.02;;
75698;SDS011;64313;51.018;13.742;2024-03-06T04:26:57;25.50;;;13.55;;
75698;SDS011;64313;51.018;13.742;2024-03-06T04:29:23;28.75;;;14.13;;
75698;SDS011;64313;51.018;13.742;2024-03-06T04:31:48;27.38;;;13.88;;
75698;SDS011;64313;51.018;13.742;2024-03-06T04:34:13;26.90;;;12.73;;
75698;SDS011;64313;51.018;13.742;2024-03-06T04:36:38;26.40;;;14.00;;
75698;SDS011;64313;51.018;13.742;2024-03-06T04:39:04;26.77;;;13.95;;
75698;SDS011;64313;51.018;13.742;2024-03-06T04:41:32;28.00;;;13.95;;
75698;SDS011;64313;51.018;13.742;2024-03-06T04:43:58;28.40;;;14.20;;
75698;SDS011;64313;51.018;13.742;2024-03-06T04:46:25;26.67;;;13.98;;
75698;SDS011;64313;51.018;13.742;2024-03-06T04:51:16;29.20;;;13.63;;
75698;SDS011;64313;51.018;13.742;2024-03-06T04:53:44;30.48;;;13.45;;
75698;SDS011;64313;51.018;13.742;2024-03-06T04:56:10;28.27;;;13.65;;
75698;SDS011;64313;51.018;13.742;2024-03-06T04:58:37;27.58;;;13.00;;
75698;SDS011;64313;51.018;13.742;2024-03-06T05:01:03;25.42;;;12.90;;
75698;SDS011;64313;51.018;13.742;2024-03-06T05:03:31;32.20;;;13.57;;
75698;SDS011;64313;51.018;13.742;2024-03-06T05:05:57;25.15;;;13.57;;
75698;SDS011;64313;51.018;13.742;2024-03-06T05:08:23;27.27;;;14.30;;
75698;SDS011;64313;51.018;13.742;2024-03-06T05:10:48;30.20;;;14.50;;
75698;SDS011;64313;51.018;13.742;2024-03-06T05:13:14;27.17;;;13.80;;
75698;SDS011;64313;51.018;13.742;2024-03-06T05:15:39;27.77;;;13.35;;
75698;SDS011;64313;51.018;13.742;2024-03-06T05:18:05;25.58;;;13.85;;
75698;SDS011;64313;51.018;13.742;2024-03-06T05:22:58;26.20;;;13.35;;
75698;SDS011;64313;51.018;13.742;2024-03-06T05:25:24;24.48;;;12.80;;
75698;SDS011;64313;51.018;13.742;2024-03-06T05:27:49;26.63;;;13.27;;
75698;SDS011;64313;51.018;13.742;2024-03-06T05:30:15;27.23;;;13.52;;
75698;SDS011;64313;51.018;13.742;2024-03-06T05:32:40;24.85;;;12.70;;
75698;SDS011;64313;51.018;13.742;2024-03-06T05:35:06;25.85;;;13.55;;
75698;SDS011;64313;51.018;13.742;2024-03-06T05:37:34;26.92;;;12.90;;
75698;SDS011;64313;51.018;13.742;2024-03-06T05:42:25;24.70;;;12.87;;
75698;SDS011;64313;51.018;13.742;2024-03-06T05:47:19;25.17;;;12.57;;
75698;SDS011;64313;51.018;13.742;2024-03-06T05:49:45;27.85;;;13.15;;
75698;SDS011;64313;51.018;13.742;2024-03-06T05:52:10;28.42;;;13.93;;
75698;SDS011;64313;51.018;13.742;2024-03-06T05:54:36;26.88;;;13.32;;
75698;SDS011;64313;51.018;13.742;2024-03-06T05:59:28;28.63;;;12.88;;
75698;SDS011;64313;51.018;13.742;2024-03-06T06:01:53;27.48;;;13.68;;
75698;SDS011;64313;51.018;13.742;2024-03-06T06:04:19;29.48;;;13.50;;
75698;SDS011;64313;51.018;13.742;2024-03-06T06:06:45;26.83;;;13.82;;
75698;SDS011;64313;51.018;13.742;2024-03-06T06:09:10;27.45;;;13.30;;
75698;SDS011;64313;51.018;13.742;2024-03-06T06:11:40;29.60;;;14.27;;
75698;SDS011;64313;51.018;13.742;2024-03-06T06:14:09;26.58;;;13.32;;
75698;SDS011;64313;51.018;13.742;2024-03-06T06:16:35;27.05;;;13.48;;
75698;SDS011;64313;51.018;13.742;2024-03-06T06:19:05;26.50;;;14.15;;
75698;SDS011;64313;51.018;13.742;2024-03-06T06:23:57;28.98;;;13.48;;
75698;SDS011;64313;51.018;13.742;2024-03-06T06:26:22;29.92;;;15.27;;
75698;SDS011;64313;51.018;13.742;2024-03-06T06:28:47;28.02;;;14.25;;
75698;SDS011;64313;51.018;13.742;2024-03-06T06:31:13;30.50;;;14.02;;
75698;SDS011;64313;51.018;13.742;2024-03-06T06:33:38;33.78;;;13.77;;
75698;SDS011;64313;51.018;13.742;2024-03-06T06:36:03;26.13;;;13.90;;
75698;SDS011;64313;51.018;13.742;2024-03-06T06:38:30;28.83;;;14.68;;
75698;SDS011;64313;51.018;13.742;2024-03-06T06:40:55;31.08;;;14.90;;
75698;SDS011;64313;51.018;13.742;2024-03-06T06:43:21;27.77;;;13.75;;
75698;SDS011;64313;51.018;13.742;2024-03-06T06:45:48;29.73;;;14.05;;
75698;SDS011;64313;51.018;13.742;2024-03-06T06:48:13;28.17;;;14.60;;
75698;SDS011;64313;51.018;13.742;2024-03-06T06:50:39;30.05;;;13.85;;
75698;SDS011;64313;51.018;13.742;2024-03-06T06:53:04;31.15;;;14.80;;
75698;SDS011;64313;51.018;13.742;2024-03-06T06:55:30;27.33;;;14.73;;
75698;SDS011;64313;51.018;13.742;2024-03-06T06:57:56;29.75;;;15.00;;
75698;SDS011;64313;51.018;13.742;2024-03-06T07:00:21;28.80;;;14.63;;
75698;SDS011;64313;51.018;13.742;2024-03-06T07:02:47;35.70;;;15.23;;
75698;SDS011;64313;51.018;13.742;2024-03-06T07:05:14;33.33;;;16.08;;
75698;SDS011;64313;51.018;13.742;2024-03-06T07:10:06;32.27;;;14.43;;
75698;SDS011;64313;51.018;13.742;2024-03-06T07:12:32;31.65;;;14.95;;
75698;SDS011;64313;51.018;13.742;2024-03-06T07:14:57;32.42;;;15.25;;
75698;SDS011;64313;51.018;13.742;2024-03-06T07:17:24;32.45;;;15.43;;
75698;SDS011;64313;51.018;13.742;2024-03-06T07:19:49;28.83;;;15.95;;
75698;SDS011;64313;51.018;13.742;2024-03-06T07:22:15;32.80;;;15.20;;
75698;SDS011;64313;51.018;13.742;2024-03-06T07:24:41;31.35;;;17.00;;
75698;SDS011;64313;51.018;13.742;2024-03-06T07:27:07;35.50;;;16.92;;
75698;SDS011;64313;51.018;13.742;2024-03-06T07:29:34;30.00;;;16.15;;
75698;SDS011;64313;51.018;13.742;2024-03-06T07:32:00;33.60;;;17.30;;
75698;SDS011;64313;51.018;13.742;2024-03-06T07:34:25;35.92;;;17.27;;
75698;SDS011;64313;51.018;13.742;2024-03-06T07:36:52;33.53;;;17.05;;
75698;SDS011;64313;51.018;13.742;2024-03-06T07:41:44;32.45;;;16.33;;
75698;SDS011;64313;51.018;13.742;2024-03-06T07:44:09;33.20;;;16.30;;
75698;SDS011;64313;51.018;13.742;2024-03-06T07:46:35;37.28;;;17.38;;
75698;SDS011;64313;51.018;13.742;2024-03-06T07:49:00;36.25;;;17.55;;
75698;SDS011;64313;51.018;13.742;2024-03-06T07:51:28;37.10;;;17.75;;
75698;SDS011;64313;51.018;13.742;2024-03-06T07:53:55;37.85;;;18.48;;
75698;SDS011;64313;51.018;13.742;2024-03-06T07:56:20;35.70;;;17.13;;
75698;SDS011;64313;51.018;13.742;2024-03-06T07:58:46;31.35;;;17.27;;
75698;SDS011;64313;51.018;13.742;2024-03-06T08:01:11;38.13;;;18.48;;
75698;SDS011;64313;51.018;13.742;2024-03-06T08:03:38;37.00;;;19.02;;
75698;SDS011;64313;51.018;13.742;2024-03-06T08:06:05;35.83;;;18.10;;
75698;SDS011;64313;51.018;13.742;2024-03-06T08:08:30;36.65;;;17.45;;
75698;SDS011;64313;51.018;13.742;2024-03-06T08:10:56;37.22;;;18.23;;
75698;SDS011;64313;51.018;13.742;2024-03-06T08:13:21;35.90;;;19.00;;
75698;SDS011;64313;51.018;13.742;2024-03-06T08:15:46;36.20;;;18.23;;
75698;SDS011;64313;51.018;13.742;2024-03-06T08:18:12;35.40;;;18.90;;
75698;SDS011;64313;51.018;13.742;2024-03-06T08:20:39;40.90;;;19.02;;
75698;SDS011;64313;51.018;13.742;2024-03-06T08:23:04;34.58;;;17.70;;
75698;SDS011;64313;51.018;13.742;2024-03-06T08:25:30;34.75;;;18.65;;
75698;SDS011;64313;51.018;13.742;2024-03-06T08:27:57;34.92;;;17.85;;
75698;SDS011;64313;51.018;13.742;2024-03-06T08:30:24;35.47;;;18.02;;
75698;SDS011;64313;51.018;13.742;2024-03-06T08:32:50;38.30;;;19.25;;
75698;SDS011;64313;51.018;13.742;2024-03-06T08:35:16;36.38;;;18.20;;
75698;SDS011;64313;51.018;13.742;2024-03-06T08:37:43;37.40;;;18.08;;
75698;SDS011;64313;51.018;13.742;2024-03-06T08:40:09;35.85;;;17.63;;
75698;SDS011;64313;51.018;13.742;2024-03-06T08:42:42;36.38;;;16.83;;
75698;SDS011;64313;51.018;13.742;2024-03-06T08:45:12;37.65;;;18.77;;
75698;SDS011;64313;51.018;13.742;2024-03-06T08:47:39;36.47;;;18.50;;
75698;SDS011;64313;51.018;13.742;2024-03-06T08:52:30;35.75;;;17.83;;
75698;SDS011;64313;51.018;13.742;2024-03-06T08:54:59;36.33;;;18.45;;
75698;SDS011;64313;51.018;13.742;2024-03-06T08:57:25;34.05;;;18.27;;
75698;SDS011;64313;51.018;13.742;2024-03-06T08:59:53;37.70;;;18.92;;
75698;SDS011;64313;51.018;13.742;2024-03-06T09:02:22;42.42;;;18.52;;
75698;SDS011;64313;51.018;13.742;2024-03-06T09:07:13;35.95;;;17.30;;
75698;SDS011;64313;51.018;13.742;2024-03-06T09:09:40;35.88;;;17.83;;
75698;SDS011;64313;51.018;13.742;2024-03-06T09:12:06;33.35;;;18.10;;
75698;SDS011;64313;51.018;13.742;2024-03-06T09:14:35;37.35;;;18.52;;
75698;SDS011;64313;51.018;13.742;2024-03-06T09:17:01;36.53;;;17.13;;
75698;SDS011;64313;51.018;13.742;2024-03-06T09:19:27;36.65;;;19.70;;
75698;SDS011;64313;51.018;13.742;2024-03-06T09:21:53;35.38;;;18.80;;
75698;SDS011;64313;51.018;13.742;2024-03-06T09:26:45;37.72;;;18.90;;
75698;SDS011;64313;51.018;13.742;2024-03-06T09:31:35;36.00;;;17.10;;
75698;SDS011;64313;51.018;13.742;2024-03-06T09:34:02;35.97;;;18.50;;
75698;SDS011;64313;51.018;13.742;2024-03-06T09:38:53;38.30;;;18.88;;
75698;SDS011;64313;51.018;13.742;2024-03-06T09:43:46;39.85;;;17.90;;
75698;SDS011;64313;51.018;13.742;2024-03-06T09:46:12;37.65;;;19.30;;
75698;SDS011;64313;51.018;13.742;2024-03-06T09:51:08;31.88;;;17.33;;
75698;SDS011;64313;51.018;13.742;2024-03-06T09:55:59;41.97;;;18.77;;
75698;SDS011;64313;51.018;13.742;2024-03-06T09:58:25;35.80;;;18.83;;
75698;SDS011;64313;51.018;13.742;2024-03-06T10:03:16;34.50;;;18.15;;
75698;SDS011;64313;51.018;13.742;2024-03-06T10:08:08;35.17;;;17.80;;
75698;SDS011;64313;51.018;13.742;2024-03-06T10:13:00;33.92;;;17.00;;
75698;SDS011;64313;51.018;13.742;2024-03-06T10:18:09;32.97;;;17.73;;
75698;SDS011;64313;51.018;13.742;2024-03-06T10:23:03;34.07;;;18.03;;
75698;SDS011;64313;51.018;13.742;2024-03-06T10:25:29;33.55;;;18.00;;
75698;SDS011;64313;51.018;13.742;2024-03-06T10:30:28;34.75;;;18.10;;
75698;SDS011;64313;51.018;13.742;2024-03-06T10:35:20;30.95;;;15.93;;
75698;SDS011;64313;51.018;13.742;2024-03-06T10:37:46;35.67;;;18.45;;
75698;SDS011;64313;51.018;13.742;2024-03-06T10:42:39;40.28;;;17.35;;
75698;SDS011;64313;51.018;13.742;2024-03-06T10:45:06;35.10;;;17.55;;
75698;SDS011;64313;51.018;13.742;2024-03-06T10:47:33;35.53;;;19.00;;
75698;SDS011;64313;51.018;13.742;2024-03-06T10:50:02;32.67;;;17.38;;
75698;SDS011;64313;51.018;13.742;2024-03-06T10:52:29;37.72;;;18.30;;
75698;SDS011;64313;51.018;13.742;2024-03-06T10:54:58;32.63;;;18.00;;
75698;SDS011;64313;51.018;13.742;2024-03-06T10:57:25;34.15;;;18.70;;
75698;SDS011;64313;51.018;13.742;2024-03-06T10:59:50;33.10;;;18.88;;
75698;SDS011;64313;51.018;13.742;2024-03-06T11:02:17;38.33;;;18.70;;
75698;SDS011;64313;51.018;13.742;2024-03-06T11:04:43;32.22;;;17.63;;
75698;SDS011;64313;51.018;13.742;2024-03-06T11:07:09;31.85;;;18.23;;
75698;SDS011;64313;51.018;13.742;2024-03-06T11:09:35;32.70;;;17.70;;
75698;SDS011;64313;51.018;13.742;2024-03-06T11:12:03;34.50;;;19.15;;
75698;SDS011;64313;51.018;13.742;2024-03-06T11:14:31;35.70;;;19.40;;
75698;SDS011;64313;51.018;13.742;2024-03-06T11:16:57;32.28;;;18.67;;
75698;SDS011;64313;51.018;13.742;2024-03-06T11:19:25;33.80;;;19.45;;
75698;SDS011;64313;51.018;13.742;2024-03-06T11:21:50;32.40;;;16.67;;
75698;SDS011;64313;51.018;13.742;2024-03-06T11:24:17;32.50;;;17.58;;
75698;SDS011;64313;51.018;13.742;2024-03-06T11:26:47;33.90;;;18.00;;
75698;SDS011;64313;51.018;13.742;2024-03-06T11:29:21;34.53;;;18.02;;
75698;SDS011;64313;51.018;13.742;2024-03-06T11:31:57;37.00;;;19.23;;
75698;SDS011;64313;51.018;13.742;2024-03-06T11:34:25;36.13;;;19.75;;
75698;SDS011;64313;51.018;13.742;2024-03-06T11:36:53;35.58;;;17.80;;
75698;SDS011;64313;51.018;13.742;2024-03-06T11:39:19;35.38;;;18.45;;
75698;SDS011;64313;51.018;13.742;2024-03-06T11:41:48;33.72;;;18.15;;
75698;SDS011;64313;51.018;13.742;2024-03-06T11:44:15;31.95;;;17.75;;
75698;SDS011;64313;51.018;13.742;2024-03-06T11:46:48;33.08;;;17.08;;
75698;SDS011;64313;51.018;13.742;2024-03-06T11:49:24;33.28;;;17.63;;
75698;SDS011;64313;51.018;13.742;2024-03-06T11:51:51;32.00;;;16.60;;
75698;SDS011;64313;51.018;13.742;2024-03-06T11:54:17;31.55;;;17.50;;
75698;SDS011;64313;51.018;13.742;2024-03-06T11:56:50;28.48;;;16.08;;
75698;SDS011;64313;51.018;13.742;2024-03-06T11:59:28;29.85;;;16.30;;
75698;SDS011;64313;51.018;13.742;2024-03-06T12:01:55;29.67;;;15.85;;
75698;SDS011;64313;51.018;13.742;2024-03-06T12:04:22;30.75;;;15.98;;
75698;SDS011;64313;51.018;13.742;2024-03-06T12:06:47;30.67;;;16.20;;
75698;SDS011;64313;51.018;13.742;2024-03-06T12:11:38;28.27;;;15.18;;
75698;SDS011;64313;51.018;13.742;2024-03-06T12:16:29;30.42;;;15.77;;
75698;SDS011;64313;51.018;13.742;2024-03-06T12:21:32;31.75;;;16.75;;
75698;SDS011;64313;51.018;13.742;2024-03-06T12:24:05;31.67;;;16.45;;
75698;SDS011;64313;51.018;13.742;2024-03-06T12:26:31;34.75;;;16.33;;
75698;SDS011;64313;51.018;13.742;2024-03-06T12:29:07;31.25;;;16.80;;
75698;SDS011;64313;51.018;13.742;2024-03-06T12:31:34;28.50;;;16.10;;
75698;SDS011;64313;51.018;13.742;2024-03-06T12:34:00;32.45;;;16.38;;
75698;SDS011;64313;51.018;13.742;2024-03-06T12:36:27;34.38;;;16.50;;
75698;SDS011;64313;51.018;13.742;2024-03-06T12:38:55;34.83;;;18.48;;
75698;SDS011;64313;51.018;13.742;2024-03-06T12:41:21;31.88;;;18.17;;
75698;SDS011;64313;51.018;13.742;2024-03-06T12:43:46;32.65;;;18.65;;
75698;SDS011;64313;51.018;13.742;2024-03-06T12:46:11;32.00;;;17.13;;
75698;SDS011;64313;51.018;13.742;2024-03-06T12:48:37;34.67;;;17.92;;
75698;SDS011;64313;51.018;13.742;2024-03-06T12:53:30;31.50;;;16.45;;
75698;SDS011;64313;51.018;13.742;2024-03-06T12:55:57;32.20;;;17.90;;
75698;SDS011;64313;51.018;13.742;2024-03-06T12:58:23;33.10;;;18.05;;
75698;SDS011;64313;51.018;13.742;2024-03-06T13:00:49;33.55;;;17.35;;
75698;SDS011;64313;51.018;13.742;2024-03-06T13:03:14;30.38;;;16.45;;
75698;SDS011;64313;51.018;13.742;2024-03-06T13:05:39;33.92;;;17.35;;
75698;SDS011;64313;51.018;13.742;2024-03-06T13:08:05;30.77;;;17.10;;
75698;SDS011;64313;51.018;13.742;2024-03-06T13:10:30;32.42;;;16.40;;
75698;SDS011;64313;51.018;13.742;2024-03-06T13:12:56;34.95;;;15.73;;
75698;SDS011;64313;51.018;13.742;2024-03-06T13:15:22;29.15;;;15.80;;
75698;SDS011;64313;51.018;13.742;2024-03-06T13:17:47;29.02;;;15.48;;
75698;SDS011;64313;51.018;13.742;2024-03-06T13:20:12;28.15;;;15.02;;
75698;SDS011;64313;51.018;13.742;2024-03-06T13:22:39;31.70;;;14.98;;
75698;SDS011;64313;51.018;13.742;2024-03-06T13:25:04;29.70;;;16.02;;
75698;SDS011;64313;51.018;13.742;2024-03-06T13:27:31;26.02;;;14.88;;
75698;SDS011;64313;51.018;13.742;2024-03-06T13:29:57;28.80;;;15.90;;
75698;SDS011;64313;51.018;13.742;2024-03-06T13:32:23;30.67;;;15.68;;
75698;SDS011;64313;51.018;13.742;2024-03-06T13:34:48;25.70;;;15.10;;
75698;SDS011;64313;51.018;13.742;2024-03-06T13:39:39;26.63;;;15.50;;
75698;SDS011;64313;51.018;13.742;2024-03-06T13:42:05;27.20;;;13.82;;
75698;SDS011;64313;51.018;13.742;2024-03-06T13:44:31;25.88;;;13.52;;
75698;SDS011;64313;51.018;13.742;2024-03-06T13:46:56;25.40;;;13.55;;
75698;SDS011;64313;51.018;13.742;2024-03-06T13:49:35;22.17;;;11.77;;
75698;SDS011;64313;51.018;13.742;2024-03-06T13:52:04;21.45;;;11.93;;
75698;SDS011;64313;51.018;13.742;2024-03-06T13:54:30;24.50;;;12.63;;
75698;SDS011;64313;51.018;13.742;2024-03-06T13:56:56;23.67;;;13.45;;
75698;SDS011;64313;51.018;13.742;2024-03-06T13:59:27;25.10;;;13.18;;
75698;SDS011;64313;51.018;13.742;2024-03-06T14:01:59;21.95;;;12.98;;
75698;SDS011;64313;51.018;13.742;2024-03-06T14:04:24;23.63;;;10.70;;
75698;SDS011;64313;51.018;13.742;2024-03-06T14:06:50;19.88;;;11.15;;
75698;SDS011;64313;51.018;13.742;2024-03-06T14:09:15;23.33;;;10.82;;
75698;SDS011;64313;51.018;13.742;2024-03-06T14:11:41;21.27;;;12.25;;
75698;SDS011;64313;51.018;13.742;2024-03-06T14:14:06;20.25;;;10.88;;
75698;SDS011;64313;51.018;13.742;2024-03-06T14:16:33;23.25;;;11.73;;
75698;SDS011;64313;51.018;13.742;2024-03-06T14:18:59;22.17;;;11.68;;
75698;SDS011;64313;51.018;13.742;2024-03-06T14:21:24;23.08;;;11.48;;
75698;SDS011;64313;51.018;13.742;2024-03-06T14:23:50;21.35;;;11.77;;
75698;SDS011;64313;51.018;13.742;2024-03-06T14:26:15;25.38;;;12.55;;
75698;SDS011;64313;51.018;13.742;2024-03-06T14:28:41;20.30;;;11.93;;
75698;SDS011;64313;51.018;13.742;2024-03-06T14:31:06;21.63;;;11.98;;
75698;SDS011;64313;51.018;13.742;2024-03-06T14:33:33;21.73;;;11.35;;
75698;SDS011;64313;51.018;13.742;2024-03-06T14:35:58;22.48;;;10.82;;
75698;SDS011;64313;51.018;13.742;2024-03-06T14:38:24;20.60;;;10.23;;
75698;SDS011;64313;51.018;13.742;2024-03-06T14:40:50;17.42;;;10.27;;
75698;SDS011;64313;51.018;13.742;2024-03-06T14:43:15;20.90;;;10.55;;
75698;SDS011;64313;51.018;13.742;2024-03-06T14:45:41;20.23;;;10.98;;
75698;SDS011;64313;51.018;13.742;2024-03-06T14:48:09;19.83;;;10.20;;
75698;SDS011;64313;51.018;13.742;2024-03-06T14:50:35;21.02;;;10.85;;
75698;SDS011;64313;51.018;13.742;2024-03-06T14:53:00;20.50;;;11.05;;
75698;SDS011;64313;51.018;13.742;2024-03-06T14:57:51;21.07;;;10.73;;
75698;SDS011;64313;51.018;13.742;2024-03-06T15:00:16;21.63;;;10.55;;
75698;SDS011;64313;51.018;13.742;2024-03-06T15:02:47;19.63;;;10.35;;
75698;SDS011;64313;51.018;13.742;2024-03-06T15:05:13;19.58;;;10.73;;
75698;SDS011;64313;51.018;13.742;2024-03-06T15:07:38;22.42;;;10.73;;
75698;SDS011;64313;51.018;13.742;2024-03-06T15:10:07;18.48;;;10.65;;
75698;SDS011;64313;51.018;13.742;2024-03-06T15:12:34;21.50;;;11.02;;
75698;SDS011;64313;51.018;13.742;2024-03-06T15:15:01;25.15;;;11.05;;
75698;SDS011;64313;51.018;13.742;2024-03-06T15:17:29;21.98;;;11.00;;
75698;SDS011;64313;51.018;13.742;2024-03-06T15:19:55;19.48;;;11.10;;
75698;SDS011;64313;51.018;13.742;2024-03-06T15:22:21;18.88;;;10.10;;
75698;SDS011;64313;51.018;13.742;2024-03-06T15:24:48;20.35;;;10.15;;
75698;SDS011;64313;51.018;13.742;2024-03-06T15:27:15;18.48;;;10.82;;
75698;SDS011;64313;51.018;13.742;2024-03-06T15:29:41;18.15;;;10.25;;
75698;SDS011;64313;51.018;13.742;2024-03-06T15:32:07;19.58;;;10.05;;
75698;SDS011;64313;51.018;13.742;2024-03-06T15:34:32;20.67;;;10.00;;
75698;SDS011;64313;51.018;13.742;2024-03-06T15:39:23;17.52;;;9.32;;
75698;SDS011;64313;51.018;13.742;2024-03-06T15:41:48;19.38;;;9.35;;
75698;SDS011;64313;51.018;13.742;2024-03-06T15:46:38;15.60;;;8.77;;
75698;SDS011;64313;51.018;13.742;2024-03-06T15:49:07;16.23;;;9.05;;
75698;SDS011;64313;51.018;13.742;2024-03-06T15:51:50;17.02;;;9.55;;
75698;SDS011;64313;51.018;13.742;2024-03-06T15:54:16;15.77;;;9.05;;
75698;SDS011;64313;51.018;13.742;2024-03-06T15:56:41;17.02;;;8.55;;
75698;SDS011;64313;51.018;13.742;2024-03-06T15:59:07;18.17;;;8.68;;
75698;SDS011;64313;51.018;13.742;2024-03-06T16:01:32;15.93;;;7.68;;
75698;SDS011;64313;51.018;13.742;2024-03-06T16:03:57;13.80;;;7.25;;
75698;SDS011;64313;51.018;13.742;2024-03-06T16:06:23;12.13;;;6.72;;
75698;SDS011;64313;51.018;13.742;2024-03-06T16:08:48;11.98;;;6.43;;
75698;SDS011;64313;51.018;13.742;2024-03-06T16:11:14;12.32;;;6.55;;
75698;SDS011;64313;51.018;13.742;2024-03-06T16:13:39;12.07;;;6.75;;
75698;SDS011;64313;51.018;13.742;2024-03-06T16:16:06;12.50;;;7.25;;
75698;SDS011;64313;51.018;13.742;2024-03-06T16:18:31;15.10;;;6.70;;
75698;SDS011;64313;51.018;13.742;2024-03-06T16:20:56;13.32;;;7.25;;
75698;SDS011;64313;51.018;13.742;2024-03-06T16:23:22;17.67;;;7.55;;
75698;SDS011;64313;51.018;13.742;2024-03-06T16:25:47;12.48;;;7.15;;
75698;SDS011;64313;51.018;13.742;2024-03-06T16:30:38;15.07;;;6.95;;
75698;SDS011;64313;51.018;13.742;2024-03-06T16:35:29;12.60;;;6.87;;
75698;SDS011;64313;51.018;13.742;2024-03-06T16:37:54;13.10;;;6.93;;
75698;SDS011;64313;51.018;13.742;2024-03-06T16:40:21;13.13;;;6.95;;
75698;SDS011;64313;51.018;13.742;2024-03-06T16:42:48;12.38;;;6.57;;
75698;SDS011;64313;51.018;13.742;2024-03-06T16:45:13;11.60;;;6.38;;
75698;SDS011;64313;51.018;13.742;2024-03-06T16:47:39;12.98;;;6.63;;
75698;SDS011;64313;51.018;13.742;2024-03-06T16:50:04;12.05;;;6.40;;
75698;SDS011;64313;51.018;13.742;2024-03-06T16:52:31;12.45;;;6.25;;